DHL757 GVAC-GCFV
Flight info
| Callsign | DHL757 |
|---|---|
| Flight time | 2h 7m |
| Altitude | 39000 |
| Route | PINPO2A PINPO UW11 GUNET N857 DEREV/N0451F400 N729 GDV |
| Aircraft | B738/M-SDE2E3FGHIRWXY/LB1 |
Departure
| Time | 2026-05-06 21:14 |
|---|---|
| Airport | Amílcar Cabral International Airport (GVAC) |
Arrival
| Time | 2026-05-06 23:21 |
|---|---|
| Airport | Fuerteventura Airport (GCFV) |
| Time | Latitude | Longitude | Altitude | Speed | Heading |
|---|---|---|---|---|---|
| 2026-05-06 20:57 | 16.73171 | -22.94495 | 200 ft | 0 kts | 89° |
| 2026-05-06 21:03 | 16.73171 | -22.94503 | 209 ft | 4 kts | 89° |
| 2026-05-06 21:03 | 16.73170 | -22.94531 | 200 ft | 4 kts | 89° |
| 2026-05-06 21:04 | 16.73170 | -22.94558 | 199 ft | 3 kts | 89° |
| 2026-05-06 21:04 | 16.73172 | -22.94582 | 202 ft | 4 kts | 124° |
| 2026-05-06 21:04 | 16.73192 | -22.94594 | 211 ft | 4 kts | 177° |
| 2026-05-06 21:04 | 16.73205 | -22.94594 | 209 ft | 1 kts | 179° |
| 2026-05-06 21:05 | 16.73206 | -22.94594 | 209 ft | 0 kts | 179° |
| 2026-05-06 21:08 | 16.73205 | -22.94594 | 199 ft | 1 kts | 179° |
| 2026-05-06 21:09 | 16.73168 | -22.94594 | 202 ft | 8 kts | 179° |
| 2026-05-06 21:09 | 16.73113 | -22.94595 | 199 ft | 8 kts | 187° |
| 2026-05-06 21:09 | 16.73071 | -22.94633 | 199 ft | 9 kts | 236° |
| 2026-05-06 21:09 | 16.73034 | -22.94684 | 199 ft | 9 kts | 215° |
| 2026-05-06 21:10 | 16.72968 | -22.94691 | 195 ft | 13 kts | 180° |
| 2026-05-06 21:10 | 16.72862 | -22.94690 | 189 ft | 16 kts | 179° |
| 2026-05-06 21:10 | 16.72751 | -22.94689 | 185 ft | 16 kts | 179° |
| 2026-05-06 21:10 | 16.72644 | -22.94688 | 185 ft | 15 kts | 180° |
| 2026-05-06 21:11 | 16.72534 | -22.94688 | 182 ft | 16 kts | 179° |
| 2026-05-06 21:11 | 16.72434 | -22.94689 | 182 ft | 9 kts | 196° |
| 2026-05-06 21:11 | 16.72410 | -22.94723 | 182 ft | 5 kts | 251° |
| 2026-05-06 21:11 | 16.72408 | -22.94762 | 183 ft | 5 kts | 270° |
| 2026-05-06 21:12 | 16.72407 | -22.94800 | 184 ft | 5 kts | 269° |
| 2026-05-06 21:12 | 16.72406 | -22.94838 | 185 ft | 5 kts | 269° |
| 2026-05-06 21:12 | 16.72417 | -22.94873 | 185 ft | 5 kts | 307° |
| 2026-05-06 21:12 | 16.72449 | -22.94887 | 186 ft | 5 kts | 354° |
| 2026-05-06 21:13 | 16.72484 | -22.94887 | 185 ft | 5 kts | 1° |
| 2026-05-06 21:13 | 16.72566 | -22.94887 | 184 ft | 39 kts | 0° |
| 2026-05-06 21:13 | 16.73154 | -22.94891 | 190 ft | 127 kts | 359° |
| 2026-05-06 21:13 | 16.74245 | -22.94894 | 497 ft | 169 kts | 2° |
| 2026-05-06 21:14 | 16.75482 | -22.94854 | 1352 ft | 188 kts | 2° |
| 2026-05-06 21:14 | 16.76768 | -22.94816 | 2565 ft | 179 kts | 1° |
| 2026-05-06 21:14 | 16.77930 | -22.94795 | 3764 ft | 160 kts | 360° |
| 2026-05-06 21:14 | 16.79072 | -22.94754 | 4336 ft | 174 kts | 359° |
| 2026-05-06 21:15 | 16.80373 | -22.94714 | 4726 ft | 197 kts | 358° |
| 2026-05-06 21:15 | 16.81748 | -22.94654 | 5327 ft | 205 kts | 8° |
| 2026-05-06 21:15 | 16.83039 | -22.93842 | 5489 ft | 235 kts | 46° |
| 2026-05-06 21:15 | 16.84085 | -22.92429 | 5683 ft | 256 kts | 50° |
| 2026-05-06 21:16 | 16.85178 | -22.90918 | 6105 ft | 264 kts | 50° |
| 2026-05-06 21:16 | 16.86310 | -22.89393 | 6594 ft | 267 kts | 49° |
| 2026-05-06 21:16 | 16.87471 | -22.87871 | 7095 ft | 270 kts | 49° |
| 2026-05-06 21:16 | 16.88671 | -22.86336 | 7555 ft | 277 kts | 48° |
| 2026-05-06 21:17 | 16.89948 | -22.84733 | 7850 ft | 295 kts | 48° |
| 2026-05-06 21:17 | 16.91285 | -22.83077 | 8513 ft | 300 kts | 47° |
| 2026-05-06 21:17 | 16.92641 | -22.81412 | 9251 ft | 303 kts | 47° |
| 2026-05-06 21:17 | 16.94025 | -22.79725 | 9921 ft | 308 kts | 47° |
| 2026-05-06 21:18 | 16.95442 | -22.78006 | 10411 ft | 321 kts | 47° |
| 2026-05-06 21:18 | 16.96955 | -22.76181 | 10564 ft | 344 kts | 47° |
| 2026-05-06 21:18 | 16.98569 | -22.74237 | 10783 ft | 362 kts | 47° |
| 2026-05-06 21:18 | 17.00238 | -22.72227 | 11268 ft | 370 kts | 47° |
| 2026-05-06 21:19 | 17.01933 | -22.70185 | 11883 ft | 373 kts | 47° |
| 2026-05-06 21:19 | 17.03641 | -22.68128 | 12551 ft | 377 kts | 47° |
| 2026-05-06 21:19 | 17.05366 | -22.66052 | 13194 ft | 381 kts | 47° |
| 2026-05-06 21:19 | 17.07113 | -22.63948 | 13847 ft | 385 kts | 47° |
| 2026-05-06 21:20 | 17.08877 | -22.61825 | 14472 ft | 388 kts | 47° |
| 2026-05-06 21:20 | 17.10050 | -22.60412 | 14938 ft | 389 kts | 47° |
| 2026-05-06 21:20 | 17.12428 | -22.57548 | 15845 ft | 391 kts | 47° |
| 2026-05-06 21:20 | 17.14213 | -22.55398 | 16554 ft | 392 kts | 46° |
| 2026-05-06 21:21 | 17.16005 | -22.53239 | 17239 ft | 394 kts | 46° |
| 2026-05-06 21:21 | 17.17782 | -22.51096 | 17897 ft | 396 kts | 46° |
| 2026-05-06 21:21 | 17.19589 | -22.48918 | 18517 ft | 398 kts | 46° |
| 2026-05-06 21:21 | 17.21411 | -22.46720 | 19020 ft | 402 kts | 46° |
| 2026-05-06 21:22 | 17.23254 | -22.44498 | 19485 ft | 407 kts | 46° |
| 2026-05-06 21:22 | 17.25121 | -22.42245 | 19948 ft | 412 kts | 46° |
| 2026-05-06 21:22 | 17.27004 | -22.39973 | 20452 ft | 415 kts | 46° |
| 2026-05-06 21:22 | 17.28900 | -22.37682 | 20954 ft | 418 kts | 46° |
| 2026-05-06 21:23 | 17.30812 | -22.35372 | 21438 ft | 422 kts | 46° |
| 2026-05-06 21:23 | 17.32744 | -22.33037 | 21908 ft | 426 kts | 46° |
| 2026-05-06 21:23 | 17.34690 | -22.30684 | 22376 ft | 430 kts | 46° |
| 2026-05-06 21:23 | 17.36656 | -22.28306 | 22832 ft | 433 kts | 46° |
| 2026-05-06 21:24 | 17.38634 | -22.25913 | 23278 ft | 437 kts | 46° |
| 2026-05-06 21:24 | 17.40632 | -22.23495 | 23699 ft | 440 kts | 46° |
| 2026-05-06 21:24 | 17.42642 | -22.21062 | 24059 ft | 444 kts | 46° |
| 2026-05-06 21:24 | 17.44668 | -22.18607 | 24416 ft | 447 kts | 46° |
| 2026-05-06 21:25 | 17.46710 | -22.16133 | 24767 ft | 450 kts | 46° |
| 2026-05-06 21:25 | 17.48762 | -22.13645 | 25163 ft | 452 kts | 46° |
| 2026-05-06 21:25 | 17.50813 | -22.11156 | 25651 ft | 452 kts | 46° |
| 2026-05-06 21:25 | 17.52875 | -22.08655 | 26004 ft | 455 kts | 46° |
| 2026-05-06 21:26 | 17.54950 | -22.06137 | 26316 ft | 459 kts | 46° |
| 2026-05-06 21:26 | 17.57045 | -22.03595 | 26641 ft | 462 kts | 46° |
| 2026-05-06 21:26 | 17.59149 | -22.01039 | 26986 ft | 465 kts | 46° |
| 2026-05-06 21:26 | 17.60548 | -21.99338 | 27211 ft | 466 kts | 46° |
| 2026-05-06 21:27 | 17.62670 | -21.96758 | 27540 ft | 469 kts | 46° |
| 2026-05-06 21:27 | 17.64808 | -21.94160 | 27854 ft | 472 kts | 46° |
| 2026-05-06 21:27 | 17.66984 | -21.91572 | 28164 ft | 474 kts | 45° |
| 2026-05-06 21:27 | 17.69232 | -21.89037 | 28469 ft | 476 kts | 44° |
| 2026-05-06 21:28 | 17.71521 | -21.86518 | 28771 ft | 479 kts | 43° |
| 2026-05-06 21:28 | 17.73832 | -21.83990 | 29069 ft | 481 kts | 43° |
| 2026-05-06 21:28 | 17.76152 | -21.81447 | 29361 ft | 484 kts | 43° |
| 2026-05-06 21:28 | 17.78478 | -21.78882 | 29612 ft | 487 kts | 44° |
| 2026-05-06 21:29 | 17.80821 | -21.76284 | 29832 ft | 491 kts | 44° |
| 2026-05-06 21:29 | 17.83168 | -21.73671 | 30106 ft | 493 kts | 44° |
| 2026-05-06 21:29 | 17.85524 | -21.71041 | 30342 ft | 495 kts | 44° |
| 2026-05-06 21:29 | 17.87876 | -21.68409 | 30737 ft | 493 kts | 44° |
| 2026-05-06 21:30 | 17.90226 | -21.65779 | 30981 ft | 495 kts | 43° |
| 2026-05-06 21:30 | 17.92591 | -21.63132 | 31171 ft | 498 kts | 43° |
| 2026-05-06 21:30 | 17.94967 | -21.60473 | 31362 ft | 501 kts | 43° |
| 2026-05-06 21:30 | 17.97355 | -21.57799 | 31592 ft | 503 kts | 43° |
| 2026-05-06 21:31 | 17.99751 | -21.55116 | 31889 ft | 503 kts | 43° |
| 2026-05-06 21:31 | 18.02145 | -21.52434 | 32152 ft | 504 kts | 43° |
| 2026-05-06 21:31 | 18.04546 | -21.49742 | 32389 ft | 506 kts | 43° |
| 2026-05-06 21:31 | 18.06958 | -21.47037 | 32624 ft | 507 kts | 43° |
| 2026-05-06 21:32 | 18.09378 | -21.44323 | 32809 ft | 510 kts | 43° |
| 2026-05-06 21:32 | 18.14245 | -21.38860 | 33303 ft | 513 kts | 42° |
| 2026-05-06 21:32 | 18.16683 | -21.36121 | 33582 ft | 513 kts | 42° |
| 2026-05-06 21:33 | 18.19128 | -21.33373 | 33794 ft | 515 kts | 42° |
| 2026-05-06 21:33 | 18.21578 | -21.30619 | 34020 ft | 517 kts | 42° |
| 2026-05-06 21:33 | 18.24031 | -21.27859 | 34378 ft | 514 kts | 42° |
| 2026-05-06 21:33 | 18.26425 | -21.25162 | 34772 ft | 510 kts | 42° |
| 2026-05-06 21:34 | 18.28846 | -21.22434 | 34975 ft | 511 kts | 42° |
| 2026-05-06 21:34 | 18.31281 | -21.19694 | 35099 ft | 514 kts | 42° |
| 2026-05-06 21:34 | 18.33732 | -21.16935 | 35271 ft | 516 kts | 42° |
| 2026-05-06 21:34 | 18.36181 | -21.14175 | 35517 ft | 516 kts | 42° |
| 2026-05-06 21:35 | 18.38632 | -21.11411 | 35697 ft | 517 kts | 42° |
| 2026-05-06 21:35 | 18.41093 | -21.08635 | 35835 ft | 520 kts | 42° |
| 2026-05-06 21:35 | 18.43561 | -21.05849 | 36044 ft | 520 kts | 41° |
| 2026-05-06 21:35 | 18.46027 | -21.03063 | 36290 ft | 520 kts | 41° |
| 2026-05-06 21:36 | 18.48495 | -21.00274 | 36505 ft | 520 kts | 41° |
| 2026-05-06 21:36 | 18.50963 | -20.97484 | 36690 ft | 521 kts | 41° |
| 2026-05-06 21:36 | 18.53438 | -20.94685 | 36878 ft | 522 kts | 41° |
| 2026-05-06 21:36 | 18.55912 | -20.91886 | 37081 ft | 522 kts | 41° |
| 2026-05-06 21:37 | 18.58391 | -20.89080 | 37281 ft | 523 kts | 41° |
| 2026-05-06 21:37 | 18.60865 | -20.86278 | 37557 ft | 522 kts | 41° |
| 2026-05-06 21:37 | 18.63332 | -20.83481 | 37829 ft | 520 kts | 41° |
| 2026-05-06 21:37 | 18.65803 | -20.80680 | 37972 ft | 522 kts | 41° |
| 2026-05-06 21:38 | 18.70778 | -20.75043 | 38166 ft | 527 kts | 41° |
| 2026-05-06 21:38 | 18.73270 | -20.72215 | 38382 ft | 526 kts | 41° |
| 2026-05-06 21:38 | 18.75761 | -20.69384 | 38597 ft | 526 kts | 41° |
| 2026-05-06 21:39 | 18.78253 | -20.66553 | 38737 ft | 527 kts | 41° |
| 2026-05-06 21:39 | 18.80745 | -20.63720 | 38860 ft | 527 kts | 41° |
| 2026-05-06 21:39 | 18.83240 | -20.60881 | 39025 ft | 526 kts | 41° |
| 2026-05-06 21:39 | 18.85689 | -20.58093 | 39273 ft | 523 kts | 41° |
| 2026-05-06 21:40 | 18.88156 | -20.55282 | 39560 ft | 520 kts | 41° |
| 2026-05-06 21:40 | 18.90602 | -20.52494 | 39825 ft | 516 kts | 41° |
| 2026-05-06 21:40 | 18.93041 | -20.49715 | 40010 ft | 515 kts | 41° |
| 2026-05-06 21:40 | 18.95483 | -20.46934 | 39995 ft | 518 kts | 41° |
| 2026-05-06 21:41 | 19.00394 | -20.41340 | 40013 ft | 520 kts | 41° |
| 2026-05-06 21:41 | 19.05292 | -20.35747 | 40010 ft | 517 kts | 41° |
| 2026-05-06 21:42 | 19.10175 | -20.30165 | 40006 ft | 516 kts | 41° |
| 2026-05-06 21:42 | 19.15037 | -20.24603 | 40008 ft | 514 kts | 41° |
| 2026-05-06 21:43 | 19.19884 | -20.19054 | 40006 ft | 513 kts | 41° |
| 2026-05-06 21:43 | 19.24726 | -20.13507 | 40014 ft | 513 kts | 41° |
| 2026-05-06 21:44 | 19.29567 | -20.07956 | 40008 ft | 513 kts | 41° |
| 2026-05-06 21:44 | 19.34407 | -20.02399 | 40041 ft | 514 kts | 41° |
| 2026-05-06 21:45 | 19.39258 | -19.96825 | 40012 ft | 515 kts | 41° |
| 2026-05-06 21:45 | 19.44113 | -19.91239 | 40002 ft | 515 kts | 41° |
| 2026-05-06 21:46 | 19.48967 | -19.85650 | 40001 ft | 515 kts | 41° |
| 2026-05-06 21:46 | 19.53819 | -19.80056 | 40002 ft | 515 kts | 41° |
| 2026-05-06 21:47 | 19.58736 | -19.74543 | 39992 ft | 510 kts | 35° |
| 2026-05-06 21:47 | 19.64450 | -19.70349 | 40017 ft | 494 kts | 21° |
| 2026-05-06 21:48 | 19.70477 | -19.66836 | 40041 ft | 494 kts | 21° |
| 2026-05-06 21:48 | 19.76506 | -19.63306 | 40006 ft | 495 kts | 21° |
| 2026-05-06 21:49 | 19.82509 | -19.59730 | 39994 ft | 494 kts | 22° |
| 2026-05-06 21:49 | 19.88484 | -19.56140 | 39996 ft | 493 kts | 22° |
| 2026-05-06 21:50 | 19.94442 | -19.52555 | 39998 ft | 491 kts | 22° |
| 2026-05-06 21:50 | 20.00385 | -19.48979 | 39999 ft | 490 kts | 22° |
| 2026-05-06 21:51 | 20.06306 | -19.45415 | 40019 ft | 488 kts | 22° |
| 2026-05-06 21:51 | 20.12210 | -19.41859 | 40010 ft | 486 kts | 22° |
| 2026-05-06 21:52 | 20.18085 | -19.38317 | 39993 ft | 484 kts | 22° |
| 2026-05-06 21:52 | 20.23936 | -19.34786 | 39994 ft | 482 kts | 22° |
| 2026-05-06 21:53 | 20.29762 | -19.31268 | 39997 ft | 481 kts | 22° |
| 2026-05-06 21:53 | 20.35569 | -19.27758 | 40000 ft | 480 kts | 22° |
| 2026-05-06 21:54 | 20.41332 | -19.24272 | 40005 ft | 479 kts | 22° |
| 2026-05-06 21:54 | 20.47138 | -19.20757 | 40003 ft | 480 kts | 22° |
| 2026-05-06 21:55 | 20.52984 | -19.17215 | 40005 ft | 481 kts | 22° |
| 2026-05-06 21:55 | 20.58774 | -19.13703 | 40005 ft | 482 kts | 22° |
| 2026-05-06 21:56 | 20.64618 | -19.10155 | 40002 ft | 484 kts | 22° |
| 2026-05-06 21:56 | 20.70482 | -19.06592 | 40025 ft | 486 kts | 22° |
| 2026-05-06 21:57 | 20.76360 | -19.03016 | 40006 ft | 487 kts | 22° |
| 2026-05-06 21:57 | 20.82238 | -18.99436 | 39998 ft | 486 kts | 22° |
| 2026-05-06 21:58 | 20.88094 | -18.95866 | 39992 ft | 484 kts | 22° |
| 2026-05-06 21:58 | 20.93933 | -18.92304 | 39990 ft | 482 kts | 22° |
| 2026-05-06 21:59 | 20.99739 | -18.88759 | 39992 ft | 479 kts | 22° |
| 2026-05-06 21:59 | 21.05520 | -18.85227 | 40022 ft | 477 kts | 22° |
| 2026-05-06 22:00 | 21.11282 | -18.81704 | 40000 ft | 476 kts | 22° |
| 2026-05-06 22:00 | 21.17028 | -18.78187 | 40001 ft | 475 kts | 22° |
| 2026-05-06 22:01 | 21.22759 | -18.74676 | 40000 ft | 474 kts | 22° |
| 2026-05-06 22:01 | 21.28489 | -18.71162 | 40000 ft | 474 kts | 22° |
| 2026-05-06 22:02 | 21.34222 | -18.67644 | 40001 ft | 475 kts | 22° |
| 2026-05-06 22:02 | 21.39964 | -18.64118 | 40029 ft | 476 kts | 22° |
| 2026-05-06 22:03 | 21.45716 | -18.60582 | 40010 ft | 477 kts | 22° |
| 2026-05-06 22:03 | 21.51482 | -18.57034 | 39997 ft | 478 kts | 23° |
| 2026-05-06 22:04 | 21.57249 | -18.53480 | 40000 ft | 478 kts | 23° |
| 2026-05-06 22:04 | 21.62977 | -18.49947 | 39997 ft | 478 kts | 23° |
| 2026-05-06 22:05 | 21.68741 | -18.46389 | 40000 ft | 477 kts | 23° |
| 2026-05-06 22:05 | 21.74500 | -18.42831 | 40010 ft | 477 kts | 22° |
| 2026-05-06 22:06 | 21.80256 | -18.39271 | 40006 ft | 477 kts | 22° |
| 2026-05-06 22:06 | 21.86011 | -18.35709 | 40001 ft | 477 kts | 22° |
| 2026-05-06 22:07 | 21.91760 | -18.32147 | 40003 ft | 476 kts | 22° |
| 2026-05-06 22:07 | 21.97503 | -18.28585 | 40002 ft | 476 kts | 22° |
| 2026-05-06 22:08 | 22.03241 | -18.25024 | 40002 ft | 476 kts | 22° |
| 2026-05-06 22:08 | 22.08977 | -18.21461 | 40012 ft | 476 kts | 23° |
| 2026-05-06 22:09 | 22.14719 | -18.17890 | 40008 ft | 476 kts | 23° |
| 2026-05-06 22:09 | 22.20455 | -18.14319 | 40001 ft | 476 kts | 23° |
| 2026-05-06 22:10 | 22.26186 | -18.10748 | 40005 ft | 476 kts | 23° |
| 2026-05-06 22:10 | 22.31916 | -18.07174 | 40008 ft | 476 kts | 23° |
| 2026-05-06 22:11 | 22.37652 | -18.03594 | 40004 ft | 476 kts | 23° |
| 2026-05-06 22:11 | 22.43386 | -18.00011 | 40008 ft | 476 kts | 23° |
| 2026-05-06 22:12 | 22.49117 | -17.96426 | 40009 ft | 476 kts | 23° |
| 2026-05-06 22:12 | 22.54844 | -17.92840 | 40003 ft | 475 kts | 23° |
| 2026-05-06 22:13 | 22.60524 | -17.89280 | 40006 ft | 475 kts | 23° |
| 2026-05-06 22:13 | 22.66233 | -17.85699 | 40001 ft | 474 kts | 23° |
| 2026-05-06 22:14 | 22.71934 | -17.82119 | 40004 ft | 473 kts | 23° |
| 2026-05-06 22:14 | 22.76666 | -17.79145 | 40003 ft | 473 kts | 24° |
| 2026-05-06 22:15 | 22.82351 | -17.75569 | 40008 ft | 472 kts | 24° |
| 2026-05-06 22:15 | 22.88029 | -17.71994 | 39995 ft | 472 kts | 24° |
| 2026-05-06 22:16 | 22.93696 | -17.68422 | 40009 ft | 471 kts | 24° |
| 2026-05-06 22:16 | 22.99353 | -17.64854 | 40006 ft | 471 kts | 24° |
| 2026-05-06 22:17 | 23.05014 | -17.61280 | 40008 ft | 470 kts | 24° |
| 2026-05-06 22:17 | 23.10676 | -17.57701 | 40006 ft | 471 kts | 24° |
| 2026-05-06 22:18 | 23.16339 | -17.54118 | 40009 ft | 471 kts | 24° |
| 2026-05-06 22:18 | 23.22000 | -17.50532 | 40004 ft | 471 kts | 24° |
| 2026-05-06 22:19 | 23.27657 | -17.46945 | 40006 ft | 471 kts | 24° |
| 2026-05-06 22:19 | 23.33311 | -17.43357 | 40006 ft | 470 kts | 24° |
| 2026-05-06 22:20 | 23.38958 | -17.39770 | 40004 ft | 470 kts | 24° |
| 2026-05-06 22:20 | 23.44611 | -17.36175 | 40010 ft | 470 kts | 24° |
| 2026-05-06 22:21 | 23.50257 | -17.32582 | 40006 ft | 470 kts | 24° |
| 2026-05-06 22:21 | 23.55900 | -17.28986 | 40007 ft | 470 kts | 24° |
| 2026-05-06 22:22 | 23.61538 | -17.25390 | 40008 ft | 469 kts | 24° |
| 2026-05-06 22:22 | 23.67164 | -17.21798 | 40010 ft | 469 kts | 24° |
| 2026-05-06 22:23 | 23.72788 | -17.18204 | 40008 ft | 468 kts | 24° |
| 2026-05-06 22:23 | 23.78372 | -17.14631 | 40008 ft | 468 kts | 24° |
| 2026-05-06 22:24 | 23.84028 | -17.11010 | 40011 ft | 468 kts | 24° |
| 2026-05-06 22:24 | 23.89603 | -17.07436 | 40011 ft | 468 kts | 24° |
| 2026-05-06 22:25 | 23.95219 | -17.03832 | 40008 ft | 468 kts | 24° |
| 2026-05-06 22:25 | 24.00841 | -17.00221 | 40008 ft | 469 kts | 24° |
| 2026-05-06 22:26 | 24.06464 | -16.96606 | 40021 ft | 469 kts | 24° |
| 2026-05-06 22:26 | 24.12101 | -16.92978 | 40010 ft | 470 kts | 24° |
| 2026-05-06 22:27 | 24.17743 | -16.89342 | 40006 ft | 471 kts | 24° |
| 2026-05-06 22:27 | 24.23387 | -16.85702 | 40009 ft | 471 kts | 24° |
| 2026-05-06 22:28 | 24.29038 | -16.82053 | 40008 ft | 471 kts | 24° |
| 2026-05-06 22:28 | 24.34690 | -16.78400 | 40011 ft | 472 kts | 24° |
| 2026-05-06 22:29 | 24.40339 | -16.74744 | 40033 ft | 472 kts | 24° |
| 2026-05-06 22:29 | 24.45991 | -16.71084 | 40017 ft | 471 kts | 24° |
| 2026-05-06 22:30 | 24.51635 | -16.67423 | 40012 ft | 470 kts | 24° |
| 2026-05-06 22:30 | 24.57261 | -16.63771 | 40013 ft | 469 kts | 24° |
| 2026-05-06 22:31 | 24.62878 | -16.60122 | 40011 ft | 469 kts | 24° |
| 2026-05-06 22:31 | 24.68485 | -16.56474 | 40014 ft | 468 kts | 24° |
| 2026-05-06 22:32 | 24.74084 | -16.52829 | 40020 ft | 468 kts | 25° |
| 2026-05-06 22:32 | 24.79644 | -16.49205 | 40017 ft | 467 kts | 25° |
| 2026-05-06 22:33 | 24.85235 | -16.45556 | 40010 ft | 467 kts | 25° |
| 2026-05-06 22:33 | 24.90817 | -16.41909 | 40013 ft | 466 kts | 25° |
| 2026-05-06 22:34 | 24.96388 | -16.38266 | 40012 ft | 466 kts | 25° |
| 2026-05-06 22:34 | 25.01959 | -16.34619 | 40027 ft | 465 kts | 25° |
| 2026-05-06 22:35 | 25.07532 | -16.30968 | 40022 ft | 466 kts | 25° |
| 2026-05-06 22:35 | 25.13105 | -16.27311 | 40021 ft | 466 kts | 25° |
| 2026-05-06 22:36 | 25.18677 | -16.23650 | 40021 ft | 466 kts | 25° |
| 2026-05-06 22:36 | 25.24246 | -16.19987 | 40019 ft | 466 kts | 25° |
| 2026-05-06 22:37 | 25.29814 | -16.16320 | 40018 ft | 466 kts | 25° |
| 2026-05-06 22:37 | 25.35384 | -16.12649 | 40020 ft | 466 kts | 25° |
| 2026-05-06 22:38 | 25.40949 | -16.08977 | 40026 ft | 466 kts | 25° |
| 2026-05-06 22:38 | 25.46518 | -16.05298 | 40013 ft | 466 kts | 25° |
| 2026-05-06 22:39 | 25.52079 | -16.01620 | 40015 ft | 465 kts | 25° |
| 2026-05-06 22:39 | 25.57635 | -15.97941 | 40019 ft | 465 kts | 25° |
| 2026-05-06 22:40 | 25.63189 | -15.94260 | 40018 ft | 465 kts | 25° |
| 2026-05-06 22:40 | 25.68739 | -15.90578 | 40045 ft | 465 kts | 25° |
| 2026-05-06 22:41 | 25.77056 | -15.85052 | 40022 ft | 465 kts | 25° |
| 2026-05-06 22:42 | 25.82599 | -15.81364 | 40021 ft | 464 kts | 25° |
| 2026-05-06 22:42 | 25.88133 | -15.77678 | 40024 ft | 464 kts | 25° |
| 2026-05-06 22:43 | 25.93682 | -15.73979 | 40184 ft | 465 kts | 25° |
| 2026-05-06 22:43 | 25.96449 | -15.72132 | 40406 ft | 463 kts | 25° |
| 2026-05-06 22:43 | 25.99208 | -15.70288 | 40601 ft | 462 kts | 25° |
| 2026-05-06 22:43 | 26.01963 | -15.68446 | 40792 ft | 461 kts | 26° |
| 2026-05-06 22:44 | 26.04704 | -15.66614 | 40989 ft | 459 kts | 26° |
| 2026-05-06 22:44 | 26.10196 | -15.62941 | 41036 ft | 463 kts | 26° |
| 2026-05-06 22:45 | 26.15692 | -15.59263 | 41033 ft | 465 kts | 26° |
| 2026-05-06 22:45 | 26.21241 | -15.55541 | 41035 ft | 466 kts | 26° |
| 2026-05-06 22:46 | 26.26805 | -15.51806 | 41031 ft | 467 kts | 26° |
| 2026-05-06 22:46 | 26.32412 | -15.48037 | 41059 ft | 467 kts | 26° |
| 2026-05-06 22:47 | 26.37944 | -15.44326 | 41035 ft | 467 kts | 26° |
| 2026-05-06 22:47 | 26.43487 | -15.40578 | 41024 ft | 465 kts | 26° |
| 2026-05-06 22:48 | 26.49009 | -15.36852 | 41027 ft | 463 kts | 26° |
| 2026-05-06 22:48 | 26.54504 | -15.33145 | 41026 ft | 460 kts | 26° |
| 2026-05-06 22:49 | 26.59968 | -15.29452 | 41029 ft | 458 kts | 26° |
| 2026-05-06 22:49 | 26.65410 | -15.25770 | 41056 ft | 456 kts | 26° |
| 2026-05-06 22:50 | 26.70962 | -15.22457 | 41018 ft | 445 kts | 11° |
| 2026-05-06 22:50 | 26.73956 | -15.21754 | 41044 ft | 436 kts | 0° |
| 2026-05-06 22:50 | 26.76952 | -15.21719 | 41034 ft | 427 kts | 347° |
| 2026-05-06 22:51 | 26.82803 | -15.22704 | 41038 ft | 425 kts | 346° |
| 2026-05-06 22:51 | 26.88663 | -15.23711 | 41038 ft | 427 kts | 347° |
| 2026-05-06 22:52 | 26.94556 | -15.24675 | 41041 ft | 429 kts | 347° |
| 2026-05-06 22:52 | 27.00478 | -15.25627 | 41039 ft | 431 kts | 347° |
| 2026-05-06 22:53 | 27.06429 | -15.26585 | 41040 ft | 432 kts | 347° |
| 2026-05-06 22:53 | 27.12276 | -15.27521 | 40427 ft | 421 kts | 347° |
| 2026-05-06 22:53 | 27.15184 | -15.27986 | 39759 ft | 424 kts | 347° |
| 2026-05-06 22:54 | 27.18115 | -15.28457 | 39091 ft | 427 kts | 347° |
| 2026-05-06 22:54 | 27.21065 | -15.28930 | 38424 ft | 429 kts | 347° |
| 2026-05-06 22:54 | 27.24026 | -15.29404 | 37718 ft | 430 kts | 347° |
| 2026-05-06 22:54 | 27.26990 | -15.29879 | 37063 ft | 430 kts | 348° |
| 2026-05-06 22:55 | 27.29943 | -15.30351 | 36503 ft | 428 kts | 348° |
| 2026-05-06 22:55 | 27.32885 | -15.30821 | 35936 ft | 426 kts | 348° |
| 2026-05-06 22:55 | 27.35816 | -15.31290 | 35319 ft | 425 kts | 349° |
| 2026-05-06 22:55 | 27.38739 | -15.31759 | 34790 ft | 423 kts | 349° |
| 2026-05-06 22:56 | 27.41633 | -15.32223 | 34413 ft | 417 kts | 349° |
| 2026-05-06 22:56 | 27.44481 | -15.32680 | 34045 ft | 411 kts | 349° |
| 2026-05-06 22:56 | 27.47291 | -15.33131 | 33582 ft | 406 kts | 349° |
| 2026-05-06 22:56 | 27.50074 | -15.33578 | 33085 ft | 402 kts | 349° |
| 2026-05-06 22:57 | 27.52791 | -15.34015 | 32707 ft | 397 kts | 349° |
| 2026-05-06 22:57 | 27.55500 | -15.34451 | 32356 ft | 390 kts | 349° |
| 2026-05-06 22:57 | 27.58175 | -15.34881 | 31889 ft | 387 kts | 349° |
| 2026-05-06 22:57 | 27.60830 | -15.35310 | 31393 ft | 384 kts | 349° |
| 2026-05-06 22:58 | 27.63467 | -15.35736 | 30934 ft | 381 kts | 349° |
| 2026-05-06 22:58 | 27.66080 | -15.36157 | 30503 ft | 378 kts | 350° |
| 2026-05-06 22:58 | 27.68668 | -15.36575 | 30083 ft | 374 kts | 350° |
| 2026-05-06 22:58 | 27.71235 | -15.36990 | 29567 ft | 371 kts | 350° |
| 2026-05-06 22:59 | 27.73782 | -15.37401 | 29028 ft | 369 kts | 350° |
| 2026-05-06 22:59 | 27.76320 | -15.37790 | 28469 ft | 368 kts | 354° |
| 2026-05-06 22:59 | 27.78863 | -15.37448 | 27868 ft | 374 kts | 15° |
| 2026-05-06 22:59 | 27.81195 | -15.36116 | 27453 ft | 378 kts | 30° |
| 2026-05-06 23:00 | 27.83183 | -15.34160 | 27004 ft | 382 kts | 42° |
| 2026-05-06 23:00 | 27.84716 | -15.31683 | 26493 ft | 392 kts | 59° |
| 2026-05-06 23:00 | 27.85736 | -15.28820 | 26055 ft | 393 kts | 64° |
| 2026-05-06 23:00 | 27.86631 | -15.25914 | 25615 ft | 391 kts | 66° |
| 2026-05-06 23:01 | 27.87488 | -15.23009 | 25186 ft | 388 kts | 66° |
| 2026-05-06 23:01 | 27.88335 | -15.20125 | 24765 ft | 385 kts | 66° |
| 2026-05-06 23:01 | 27.88624 | -15.19155 | 24623 ft | 384 kts | 66° |
| 2026-05-06 23:01 | 27.89447 | -15.16415 | 24223 ft | 382 kts | 66° |
| 2026-05-06 23:02 | 27.90015 | -15.14535 | 23955 ft | 380 kts | 66° |
| 2026-05-06 23:02 | 27.90860 | -15.11744 | 23441 ft | 372 kts | 66° |
| 2026-05-06 23:02 | 27.91700 | -15.08984 | 22596 ft | 371 kts | 66° |
| 2026-05-06 23:02 | 27.92545 | -15.06220 | 21741 ft | 372 kts | 66° |
| 2026-05-06 23:03 | 27.93390 | -15.03457 | 20966 ft | 371 kts | 66° |
| 2026-05-06 23:03 | 27.94502 | -14.99821 | 20036 ft | 368 kts | 66° |
| 2026-05-06 23:03 | 27.95065 | -14.97978 | 19567 ft | 367 kts | 66° |
| 2026-05-06 23:03 | 27.95896 | -14.95258 | 18860 ft | 365 kts | 66° |
| 2026-05-06 23:04 | 27.96725 | -14.92543 | 18156 ft | 365 kts | 67° |
| 2026-05-06 23:04 | 27.97562 | -14.89808 | 17436 ft | 370 kts | 67° |
| 2026-05-06 23:04 | 27.98396 | -14.87071 | 17108 ft | 365 kts | 67° |
| 2026-05-06 23:04 | 27.99215 | -14.84377 | 16770 ft | 360 kts | 68° |
| 2026-05-06 23:05 | 28.00026 | -14.81708 | 16367 ft | 358 kts | 68° |
| 2026-05-06 23:05 | 28.00836 | -14.79046 | 15943 ft | 357 kts | 68° |
| 2026-05-06 23:05 | 28.01641 | -14.76394 | 15540 ft | 355 kts | 68° |
| 2026-05-06 23:05 | 28.02442 | -14.73758 | 15158 ft | 353 kts | 68° |
| 2026-05-06 23:06 | 28.03236 | -14.71139 | 14776 ft | 351 kts | 68° |
| 2026-05-06 23:06 | 28.04017 | -14.68554 | 14272 ft | 344 kts | 69° |
| 2026-05-06 23:06 | 28.04789 | -14.65991 | 13586 ft | 344 kts | 69° |
| 2026-05-06 23:06 | 28.05552 | -14.63464 | 12943 ft | 343 kts | 69° |
| 2026-05-06 23:07 | 28.06323 | -14.60912 | 12560 ft | 341 kts | 69° |
| 2026-05-06 23:07 | 28.07085 | -14.58388 | 12242 ft | 337 kts | 69° |
| 2026-05-06 23:07 | 28.07839 | -14.55891 | 11887 ft | 334 kts | 70° |
| 2026-05-06 23:07 | 28.08586 | -14.53417 | 11548 ft | 331 kts | 69° |
| 2026-05-06 23:08 | 28.09328 | -14.50957 | 11166 ft | 329 kts | 69° |
| 2026-05-06 23:08 | 28.10056 | -14.48538 | 11045 ft | 319 kts | 70° |
| 2026-05-06 23:08 | 28.10759 | -14.46203 | 10931 ft | 309 kts | 70° |
| 2026-05-06 23:08 | 28.11443 | -14.43929 | 10792 ft | 301 kts | 70° |
| 2026-05-06 23:09 | 28.12112 | -14.41704 | 10560 ft | 296 kts | 70° |
| 2026-05-06 23:09 | 28.12777 | -14.39493 | 10211 ft | 297 kts | 70° |
| 2026-05-06 23:09 | 28.13444 | -14.37273 | 9908 ft | 296 kts | 70° |
| 2026-05-06 23:09 | 28.14103 | -14.35076 | 9676 ft | 291 kts | 69° |
| 2026-05-06 23:10 | 28.14756 | -14.32897 | 9260 ft | 293 kts | 69° |
| 2026-05-06 23:10 | 28.15411 | -14.30712 | 8985 ft | 291 kts | 70° |
| 2026-05-06 23:10 | 28.16056 | -14.28564 | 8757 ft | 286 kts | 70° |
| 2026-05-06 23:10 | 28.16699 | -14.26417 | 8331 ft | 290 kts | 69° |
| 2026-05-06 23:11 | 28.17343 | -14.24269 | 8141 ft | 283 kts | 70° |
| 2026-05-06 23:11 | 28.17957 | -14.22211 | 7970 ft | 269 kts | 70° |
| 2026-05-06 23:11 | 28.18561 | -14.20187 | 7421 ft | 276 kts | 68° |
| 2026-05-06 23:11 | 28.19177 | -14.18126 | 7177 ft | 274 kts | 69° |
| 2026-05-06 23:12 | 28.19782 | -14.16099 | 6884 ft | 273 kts | 70° |
| 2026-05-06 23:12 | 28.20390 | -14.14062 | 6572 ft | 273 kts | 67° |
| 2026-05-06 23:12 | 28.20995 | -14.12030 | 6369 ft | 269 kts | 68° |
| 2026-05-06 23:12 | 28.21592 | -14.10025 | 6058 ft | 267 kts | 67° |
| 2026-05-06 23:13 | 28.22179 | -14.08051 | 5690 ft | 262 kts | 68° |
| 2026-05-06 23:13 | 28.22751 | -14.06124 | 5495 ft | 251 kts | 69° |
| 2026-05-06 23:13 | 28.23292 | -14.04306 | 5370 ft | 236 kts | 67° |
| 2026-05-06 23:13 | 28.23797 | -14.02594 | 5263 ft | 222 kts | 67° |
| 2026-05-06 23:14 | 28.24273 | -14.00986 | 5155 ft | 209 kts | 65° |
| 2026-05-06 23:14 | 28.24723 | -13.99471 | 4990 ft | 200 kts | 67° |
| 2026-05-06 23:14 | 28.25179 | -13.97948 | 4580 ft | 203 kts | 68° |
| 2026-05-06 23:14 | 28.25614 | -13.96476 | 4369 ft | 193 kts | 66° |
| 2026-05-06 23:15 | 28.26037 | -13.95058 | 4161 ft | 185 kts | 67° |
| 2026-05-06 23:15 | 28.26437 | -13.93709 | 3967 ft | 175 kts | 67° |
| 2026-05-06 23:15 | 28.26813 | -13.92437 | 3744 ft | 164 kts | 66° |
| 2026-05-06 23:15 | 28.27165 | -13.91244 | 3638 ft | 158 kts | 65° |
| 2026-05-06 23:16 | 28.27522 | -13.90044 | 3448 ft | 161 kts | 66° |
| 2026-05-06 23:16 | 28.27885 | -13.88826 | 3285 ft | 164 kts | 65° |
| 2026-05-06 23:16 | 28.28300 | -13.87631 | 3105 ft | 160 kts | 50° |
| 2026-05-06 23:16 | 28.29152 | -13.86994 | 2899 ft | 145 kts | 9° |
| 2026-05-06 23:17 | 28.30130 | -13.86941 | 2879 ft | 135 kts | 2° |
| 2026-05-06 23:17 | 28.31028 | -13.86890 | 2689 ft | 132 kts | 5° |
| 2026-05-06 23:17 | 28.31924 | -13.86835 | 2480 ft | 126 kts | 5° |
| 2026-05-06 23:17 | 28.32786 | -13.86810 | 2284 ft | 124 kts | 2° |
| 2026-05-06 23:18 | 28.33645 | -13.86803 | 2067 ft | 120 kts | 5° |
| 2026-05-06 23:18 | 28.34451 | -13.86736 | 1872 ft | 113 kts | 7° |
| 2026-05-06 23:18 | 28.35219 | -13.86714 | 1715 ft | 110 kts | 4° |
| 2026-05-06 23:18 | 28.36028 | -13.86692 | 1551 ft | 121 kts | 4° |
| 2026-05-06 23:19 | 28.36847 | -13.86671 | 1473 ft | 112 kts | 3° |
| 2026-05-06 23:19 | 28.37595 | -13.86657 | 1321 ft | 107 kts | 6° |
| 2026-05-06 23:19 | 28.38364 | -13.86645 | 1264 ft | 115 kts | 6° |
| 2026-05-06 23:19 | 28.39173 | -13.86594 | 1110 ft | 114 kts | 7° |
| 2026-05-06 23:20 | 28.39967 | -13.86564 | 965 ft | 113 kts | 5° |
| 2026-05-06 23:20 | 28.40737 | -13.86557 | 840 ft | 115 kts | 7° |
| 2026-05-06 23:20 | 28.41555 | -13.86500 | 671 ft | 117 kts | 6° |
| 2026-05-06 23:20 | 28.42350 | -13.86468 | 433 ft | 114 kts | 4° |
| 2026-05-06 23:21 | 28.43139 | -13.86454 | 271 ft | 111 kts | 6° |
| 2026-05-06 23:21 | 28.43892 | -13.86420 | 112 ft | 105 kts | 4° |
| 2026-05-06 23:21 | 28.44574 | -13.86399 | 61 ft | 85 kts | 1° |
| 2026-05-06 23:21 | 28.44950 | -13.86390 | 74 ft | 28 kts | 0° |
| 2026-05-06 23:22 | 28.45140 | -13.86381 | 77 ft | 26 kts | 2° |
| 2026-05-06 23:22 | 28.45318 | -13.86375 | 81 ft | 25 kts | 1° |
| 2026-05-06 23:22 | 28.45405 | -13.86398 | 82 ft | 11 kts | 300° |
| 2026-05-06 23:22 | 28.45409 | -13.86480 | 86 ft | 5 kts | 271° |
| 2026-05-06 23:23 | 28.45410 | -13.86516 | 94 ft | 5 kts | 271° |
| 2026-05-06 23:23 | 28.45413 | -13.86551 | 95 ft | 4 kts | 296° |
| 2026-05-06 23:23 | 28.45442 | -13.86562 | 96 ft | 5 kts | 359° |
| 2026-05-06 23:23 | 28.45473 | -13.86562 | 97 ft | 5 kts | 359° |
| 2026-05-06 23:24 | 28.45504 | -13.86562 | 95 ft | 4 kts | 1° |
| 2026-05-06 23:24 | 28.45535 | -13.86561 | 95 ft | 5 kts | 1° |
| 2026-05-06 23:24 | 28.45569 | -13.86566 | 96 ft | 5 kts | 335° |
| 2026-05-06 23:24 | 28.45587 | -13.86597 | 97 ft | 5 kts | 289° |
| 2026-05-06 23:25 | 28.45595 | -13.86634 | 97 ft | 5 kts | 284° |
| 2026-05-06 23:25 | 28.45603 | -13.86677 | 98 ft | 7 kts | 274° |
| 2026-05-06 23:25 | 28.45604 | -13.86738 | 98 ft | 6 kts | 272° |
| 2026-05-06 23:25 | 28.45606 | -13.86786 | 98 ft | 6 kts | 272° |
| 2026-05-06 23:26 | 28.45607 | -13.86810 | 98 ft | 2 kts | 271° |
| 2026-05-06 23:26 | 28.45607 | -13.86822 | 98 ft | 0 kts | 271° |